sensor_id;sensor_type;location;lat;lon;timestamp;P1;durP1;ratioP1;P2;durP2;ratioP2
34019;SDS011;20895;51.034;3.742;2023-09-07T00:00:24;9.25;;;6.15;;
34019;SDS011;20895;51.034;3.742;2023-09-07T00:02:49;9.43;;;7.10;;
34019;SDS011;20895;51.034;3.742;2023-09-07T00:05:14;10.82;;;7.18;;
34019;SDS011;20895;51.034;3.742;2023-09-07T00:07:40;8.00;;;7.15;;
34019;SDS011;20895;51.034;3.742;2023-09-07T00:10:05;11.63;;;6.88;;
34019;SDS011;20895;51.034;3.742;2023-09-07T00:12:31;9.88;;;7.60;;
34019;SDS011;20895;51.034;3.742;2023-09-07T00:14:59;8.88;;;7.72;;
34019;SDS011;20895;51.034;3.742;2023-09-07T00:17:25;9.60;;;7.10;;
34019;SDS011;20895;51.034;3.742;2023-09-07T00:19:50;9.10;;;7.57;;
34019;SDS011;20895;51.034;3.742;2023-09-07T00:22:16;11.00;;;7.47;;
34019;SDS011;20895;51.034;3.742;2023-09-07T00:24:41;8.65;;;7.35;;
34019;SDS011;20895;51.034;3.742;2023-09-07T00:27:07;7.93;;;7.10;;
34019;SDS011;20895;51.034;3.742;2023-09-07T00:29:33;10.27;;;7.03;;
34019;SDS011;20895;51.034;3.742;2023-09-07T00:31:58;8.80;;;6.93;;
34019;SDS011;20895;51.034;3.742;2023-09-07T00:34:23;9.23;;;8.03;;
34019;SDS011;20895;51.034;3.742;2023-09-07T00:36:48;9.90;;;6.50;;
34019;SDS011;20895;51.034;3.742;2023-09-07T00:39:14;9.85;;;7.63;;
34019;SDS011;20895;51.034;3.742;2023-09-07T00:41:39;11.52;;;7.18;;
34019;SDS011;20895;51.034;3.742;2023-09-07T00:44:04;9.38;;;7.28;;
34019;SDS011;20895;51.034;3.742;2023-09-07T00:46:30;10.77;;;7.40;;
34019;SDS011;20895;51.034;3.742;2023-09-07T00:48:55;10.40;;;8.07;;
34019;SDS011;20895;51.034;3.742;2023-09-07T00:51:21;10.55;;;7.50;;
34019;SDS011;20895;51.034;3.742;2023-09-07T00:53:46;9.68;;;7.55;;
34019;SDS011;20895;51.034;3.742;2023-09-07T00:56:11;10.13;;;8.07;;
34019;SDS011;20895;51.034;3.742;2023-09-07T00:58:37;9.38;;;8.20;;
34019;SDS011;20895;51.034;3.742;2023-09-07T01:01:02;10.63;;;7.63;;
34019;SDS011;20895;51.034;3.742;2023-09-07T01:03:28;11.88;;;8.20;;
34019;SDS011;20895;51.034;3.742;2023-09-07T01:08:39;8.98;;;7.30;;
34019;SDS011;20895;51.034;3.742;2023-09-07T01:11:13;12.13;;;7.88;;
34019;SDS011;20895;51.034;3.742;2023-09-07T01:13:38;11.30;;;7.75;;
34019;SDS011;20895;51.034;3.742;2023-09-07T01:16:04;10.43;;;7.60;;
34019;SDS011;20895;51.034;3.742;2023-09-07T01:18:29;11.73;;;7.43;;
34019;SDS011;20895;51.034;3.742;2023-09-07T01:20:55;8.57;;;7.55;;
34019;SDS011;20895;51.034;3.742;2023-09-07T01:23:20;11.32;;;8.30;;
34019;SDS011;20895;51.034;3.742;2023-09-07T01:25:46;9.57;;;7.90;;
34019;SDS011;20895;51.034;3.742;2023-09-07T01:28:12;8.85;;;7.90;;
34019;SDS011;20895;51.034;3.742;2023-09-07T01:30:37;11.02;;;8.30;;
34019;SDS011;20895;51.034;3.742;2023-09-07T01:33:03;9.23;;;8.23;;
34019;SDS011;20895;51.034;3.742;2023-09-07T01:35:29;11.05;;;7.78;;
34019;SDS011;20895;51.034;3.742;2023-09-07T01:37:55;9.77;;;7.82;;
34019;SDS011;20895;51.034;3.742;2023-09-07T01:40:20;11.10;;;8.35;;
34019;SDS011;20895;51.034;3.742;2023-09-07T01:42:45;9.18;;;7.38;;
34019;SDS011;20895;51.034;3.742;2023-09-07T01:45:11;9.87;;;6.77;;
34019;SDS011;20895;51.034;3.742;2023-09-07T01:47:36;8.43;;;7.53;;
34019;SDS011;20895;51.034;3.742;2023-09-07T01:50:02;10.88;;;7.78;;
34019;SDS011;20895;51.034;3.742;2023-09-07T01:52:27;9.82;;;7.50;;
34019;SDS011;20895;51.034;3.742;2023-09-07T01:54:54;11.57;;;8.05;;
34019;SDS011;20895;51.034;3.742;2023-09-07T01:57:23;11.20;;;8.68;;
34019;SDS011;20895;51.034;3.742;2023-09-07T01:59:48;12.68;;;8.52;;
34019;SDS011;20895;51.034;3.742;2023-09-07T02:02:13;9.23;;;7.80;;
34019;SDS011;20895;51.034;3.742;2023-09-07T02:04:39;11.48;;;7.47;;
34019;SDS011;20895;51.034;3.742;2023-09-07T02:07:04;11.68;;;8.05;;
34019;SDS011;20895;51.034;3.742;2023-09-07T02:09:29;9.63;;;7.57;;
34019;SDS011;20895;51.034;3.742;2023-09-07T02:11:55;11.80;;;8.27;;
34019;SDS011;20895;51.034;3.742;2023-09-07T02:14:20;8.95;;;8.00;;
34019;SDS011;20895;51.034;3.742;2023-09-07T02:16:45;10.67;;;8.17;;
34019;SDS011;20895;51.034;3.742;2023-09-07T02:19:10;9.70;;;8.70;;
34019;SDS011;20895;51.034;3.742;2023-09-07T02:21:36;8.10;;;7.13;;
34019;SDS011;20895;51.034;3.742;2023-09-07T02:24:01;12.00;;;7.88;;
34019;SDS011;20895;51.034;3.742;2023-09-07T02:26:26;9.15;;;7.80;;
34019;SDS011;20895;51.034;3.742;2023-09-07T02:28:51;10.18;;;8.13;;
34019;SDS011;20895;51.034;3.742;2023-09-07T02:31:17;8.20;;;7.38;;
34019;SDS011;20895;51.034;3.742;2023-09-07T02:33:42;9.57;;;7.75;;
34019;SDS011;20895;51.034;3.742;2023-09-07T02:36:07;10.02;;;8.40;;
34019;SDS011;20895;51.034;3.742;2023-09-07T02:38:32;9.15;;;7.90;;
34019;SDS011;20895;51.034;3.742;2023-09-07T02:40:58;13.23;;;8.10;;
34019;SDS011;20895;51.034;3.742;2023-09-07T02:43:23;9.23;;;7.63;;
34019;SDS011;20895;51.034;3.742;2023-09-07T02:45:49;10.50;;;8.65;;
34019;SDS011;20895;51.034;3.742;2023-09-07T02:48:15;12.00;;;8.02;;
34019;SDS011;20895;51.034;3.742;2023-09-07T02:50:40;10.02;;;8.15;;
34019;SDS011;20895;51.034;3.742;2023-09-07T02:53:05;9.18;;;7.68;;
34019;SDS011;20895;51.034;3.742;2023-09-07T02:55:30;9.23;;;7.95;;
34019;SDS011;20895;51.034;3.742;2023-09-07T02:57:56;9.82;;;8.60;;
34019;SDS011;20895;51.034;3.742;2023-09-07T03:00:22;9.77;;;8.43;;
34019;SDS011;20895;51.034;3.742;2023-09-07T03:02:47;8.63;;;7.63;;
34019;SDS011;20895;51.034;3.742;2023-09-07T03:05:13;10.80;;;8.23;;
34019;SDS011;20895;51.034;3.742;2023-09-07T03:07:39;10.02;;;7.70;;
34019;SDS011;20895;51.034;3.742;2023-09-07T03:10:04;13.98;;;9.35;;
34019;SDS011;20895;51.034;3.742;2023-09-07T03:12:30;9.40;;;8.40;;
34019;SDS011;20895;51.034;3.742;2023-09-07T03:14:55;12.00;;;8.02;;
34019;SDS011;20895;51.034;3.742;2023-09-07T03:17:20;10.60;;;9.23;;
34019;SDS011;20895;51.034;3.742;2023-09-07T03:19:46;10.02;;;7.60;;
34019;SDS011;20895;51.034;3.742;2023-09-07T03:22:11;10.48;;;8.23;;
34019;SDS011;20895;51.034;3.742;2023-09-07T03:24:36;8.63;;;7.20;;
34019;SDS011;20895;51.034;3.742;2023-09-07T03:27:02;8.73;;;7.82;;
34019;SDS011;20895;51.034;3.742;2023-09-07T03:29:29;9.60;;;8.60;;
34019;SDS011;20895;51.034;3.742;2023-09-07T03:31:54;9.57;;;8.05;;
34019;SDS011;20895;51.034;3.742;2023-09-07T03:34:20;10.93;;;8.90;;
34019;SDS011;20895;51.034;3.742;2023-09-07T03:36:45;9.55;;;7.80;;
34019;SDS011;20895;51.034;3.742;2023-09-07T03:39:11;10.35;;;8.60;;
34019;SDS011;20895;51.034;3.742;2023-09-07T03:41:36;13.15;;;8.40;;
34019;SDS011;20895;51.034;3.742;2023-09-07T03:44:01;9.02;;;8.13;;
34019;SDS011;20895;51.034;3.742;2023-09-07T03:46:27;11.50;;;8.40;;
34019;SDS011;20895;51.034;3.742;2023-09-07T03:48:52;11.02;;;8.23;;
34019;SDS011;20895;51.034;3.742;2023-09-07T03:51:17;11.45;;;8.70;;
34019;SDS011;20895;51.034;3.742;2023-09-07T03:53:42;9.77;;;8.55;;
34019;SDS011;20895;51.034;3.742;2023-09-07T03:56:08;9.10;;;8.07;;
34019;SDS011;20895;51.034;3.742;2023-09-07T03:58:33;10.13;;;8.38;;
34019;SDS011;20895;51.034;3.742;2023-09-07T04:00:59;9.82;;;8.75;;
34019;SDS011;20895;51.034;3.742;2023-09-07T04:03:24;11.38;;;9.02;;
34019;SDS011;20895;51.034;3.742;2023-09-07T04:05:50;12.85;;;8.60;;
34019;SDS011;20895;51.034;3.742;2023-09-07T04:08:16;10.57;;;9.57;;
34019;SDS011;20895;51.034;3.742;2023-09-07T04:10:41;10.57;;;8.48;;
34019;SDS011;20895;51.034;3.742;2023-09-07T04:13:06;11.05;;;9.30;;
34019;SDS011;20895;51.034;3.742;2023-09-07T04:15:33;9.15;;;8.15;;
34019;SDS011;20895;51.034;3.742;2023-09-07T04:17:58;14.23;;;9.57;;
34019;SDS011;20895;51.034;3.742;2023-09-07T04:20:23;9.47;;;8.53;;
34019;SDS011;20895;51.034;3.742;2023-09-07T04:22:49;15.20;;;8.77;;
34019;SDS011;20895;51.034;3.742;2023-09-07T04:25:14;12.27;;;9.17;;
34019;SDS011;20895;51.034;3.742;2023-09-07T04:27:39;10.57;;;9.50;;
34019;SDS011;20895;51.034;3.742;2023-09-07T04:30:05;10.82;;;9.52;;
34019;SDS011;20895;51.034;3.742;2023-09-07T04:32:30;10.88;;;9.43;;
34019;SDS011;20895;51.034;3.742;2023-09-07T04:34:56;12.40;;;9.68;;
34019;SDS011;20895;51.034;3.742;2023-09-07T04:37:22;10.15;;;8.68;;
34019;SDS011;20895;51.034;3.742;2023-09-07T04:39:50;10.73;;;9.40;;
34019;SDS011;20895;51.034;3.742;2023-09-07T04:42:15;14.98;;;9.98;;
34019;SDS011;20895;51.034;3.742;2023-09-07T04:44:40;16.20;;;10.13;;
34019;SDS011;20895;51.034;3.742;2023-09-07T04:47:06;12.33;;;10.43;;
34019;SDS011;20895;51.034;3.742;2023-09-07T04:49:31;11.77;;;9.00;;
34019;SDS011;20895;51.034;3.742;2023-09-07T04:51:57;10.30;;;9.27;;
34019;SDS011;20895;51.034;3.742;2023-09-07T04:54:22;11.18;;;9.13;;
34019;SDS011;20895;51.034;3.742;2023-09-07T04:56:47;9.88;;;8.40;;
34019;SDS011;20895;51.034;3.742;2023-09-07T04:59:12;11.07;;;9.63;;
34019;SDS011;20895;51.034;3.742;2023-09-07T05:01:38;11.38;;;9.20;;
34019;SDS011;20895;51.034;3.742;2023-09-07T05:04:03;12.23;;;9.77;;
34019;SDS011;20895;51.034;3.742;2023-09-07T05:06:29;11.70;;;10.38;;
34019;SDS011;20895;51.034;3.742;2023-09-07T05:08:54;12.75;;;10.05;;
34019;SDS011;20895;51.034;3.742;2023-09-07T05:11:19;11.37;;;9.70;;
34019;SDS011;20895;51.034;3.742;2023-09-07T05:13:44;11.32;;;9.55;;
34019;SDS011;20895;51.034;3.742;2023-09-07T05:16:10;10.48;;;9.38;;
34019;SDS011;20895;51.034;3.742;2023-09-07T05:18:35;11.95;;;9.45;;
34019;SDS011;20895;51.034;3.742;2023-09-07T05:21:00;12.73;;;9.95;;
34019;SDS011;20895;51.034;3.742;2023-09-07T05:23:25;13.15;;;9.40;;
34019;SDS011;20895;51.034;3.742;2023-09-07T05:25:52;10.48;;;9.13;;
34019;SDS011;20895;51.034;3.742;2023-09-07T05:28:17;12.52;;;9.95;;
34019;SDS011;20895;51.034;3.742;2023-09-07T05:30:43;11.55;;;9.10;;
34019;SDS011;20895;51.034;3.742;2023-09-07T05:33:12;14.55;;;9.02;;
34019;SDS011;20895;51.034;3.742;2023-09-07T05:35:37;11.95;;;10.18;;
34019;SDS011;20895;51.034;3.742;2023-09-07T05:38:04;12.45;;;10.30;;
34019;SDS011;20895;51.034;3.742;2023-09-07T05:40:29;11.43;;;9.45;;
34019;SDS011;20895;51.034;3.742;2023-09-07T05:42:54;15.40;;;8.80;;
34019;SDS011;20895;51.034;3.742;2023-09-07T05:45:20;11.82;;;8.80;;
34019;SDS011;20895;51.034;3.742;2023-09-07T05:47:45;11.48;;;9.20;;
34019;SDS011;20895;51.034;3.742;2023-09-07T05:50:10;10.73;;;8.85;;
34019;SDS011;20895;51.034;3.742;2023-09-07T05:52:36;10.65;;;9.05;;
34019;SDS011;20895;51.034;3.742;2023-09-07T05:55:01;11.35;;;9.18;;
34019;SDS011;20895;51.034;3.742;2023-09-07T05:57:27;10.48;;;9.38;;
34019;SDS011;20895;51.034;3.742;2023-09-07T05:59:52;13.95;;;8.52;;
34019;SDS011;20895;51.034;3.742;2023-09-07T06:02:18;20.50;;;9.93;;
34019;SDS011;20895;51.034;3.742;2023-09-07T06:04:43;11.50;;;9.23;;
34019;SDS011;20895;51.034;3.742;2023-09-07T06:07:08;11.05;;;9.13;;
34019;SDS011;20895;51.034;3.742;2023-09-07T06:09:33;11.65;;;8.77;;
34019;SDS011;20895;51.034;3.742;2023-09-07T06:12:00;10.23;;;8.75;;
34019;SDS011;20895;51.034;3.742;2023-09-07T06:14:25;10.15;;;9.15;;
34019;SDS011;20895;51.034;3.742;2023-09-07T06:16:50;11.32;;;9.00;;
34019;SDS011;20895;51.034;3.742;2023-09-07T06:19:16;10.50;;;8.70;;
34019;SDS011;20895;51.034;3.742;2023-09-07T06:21:41;12.43;;;9.45;;
34019;SDS011;20895;51.034;3.742;2023-09-07T06:24:07;11.00;;;8.35;;
34019;SDS011;20895;51.034;3.742;2023-09-07T06:26:32;9.10;;;7.97;;
34019;SDS011;20895;51.034;3.742;2023-09-07T06:29:00;9.48;;;8.07;;
34019;SDS011;20895;51.034;3.742;2023-09-07T06:31:26;11.10;;;8.82;;
34019;SDS011;20895;51.034;3.742;2023-09-07T06:33:51;11.93;;;8.80;;
34019;SDS011;20895;51.034;3.742;2023-09-07T06:36:16;11.13;;;8.67;;
34019;SDS011;20895;51.034;3.742;2023-09-07T06:38:41;14.15;;;8.13;;
34019;SDS011;20895;51.034;3.742;2023-09-07T06:41:06;12.57;;;8.40;;
34019;SDS011;20895;51.034;3.742;2023-09-07T06:43:33;12.23;;;7.63;;
34019;SDS011;20895;51.034;3.742;2023-09-07T06:46:08;11.68;;;7.90;;
34019;SDS011;20895;51.034;3.742;2023-09-07T06:48:33;12.82;;;8.27;;
34019;SDS011;20895;51.034;3.742;2023-09-07T06:51:05;11.65;;;7.20;;
34019;SDS011;20895;51.034;3.742;2023-09-07T06:53:31;9.82;;;8.10;;
34019;SDS011;20895;51.034;3.742;2023-09-07T06:55:59;11.52;;;8.13;;
34019;SDS011;20895;51.034;3.742;2023-09-07T06:58:25;12.07;;;7.78;;
34019;SDS011;20895;51.034;3.742;2023-09-07T07:00:50;11.77;;;7.68;;
34019;SDS011;20895;51.034;3.742;2023-09-07T07:03:15;9.88;;;7.95;;
34019;SDS011;20895;51.034;3.742;2023-09-07T07:05:41;10.93;;;7.33;;
34019;SDS011;20895;51.034;3.742;2023-09-07T07:08:07;10.38;;;7.38;;
34019;SDS011;20895;51.034;3.742;2023-09-07T07:10:32;10.90;;;7.70;;
34019;SDS011;20895;51.034;3.742;2023-09-07T07:12:58;10.00;;;7.30;;
34019;SDS011;20895;51.034;3.742;2023-09-07T07:15:26;9.10;;;7.32;;
34019;SDS011;20895;51.034;3.742;2023-09-07T07:17:51;8.32;;;6.75;;
34019;SDS011;20895;51.034;3.742;2023-09-07T07:20:19;8.30;;;6.95;;
34019;SDS011;20895;51.034;3.742;2023-09-07T07:22:44;9.38;;;7.53;;
34019;SDS011;20895;51.034;3.742;2023-09-07T07:25:10;12.10;;;6.77;;
34019;SDS011;20895;51.034;3.742;2023-09-07T07:27:35;10.85;;;6.57;;
34019;SDS011;20895;51.034;3.742;2023-09-07T07:30:01;9.15;;;6.25;;
34019;SDS011;20895;51.034;3.742;2023-09-07T07:32:26;10.15;;;6.72;;
34019;SDS011;20895;51.034;3.742;2023-09-07T07:34:52;11.55;;;6.47;;
34019;SDS011;20895;51.034;3.742;2023-09-07T07:37:17;8.40;;;6.28;;
34019;SDS011;20895;51.034;3.742;2023-09-07T07:39:42;9.48;;;6.28;;
34019;SDS011;20895;51.034;3.742;2023-09-07T07:42:07;11.68;;;6.10;;
34019;SDS011;20895;51.034;3.742;2023-09-07T07:44:33;8.13;;;6.45;;
34019;SDS011;20895;51.034;3.742;2023-09-07T07:46:58;7.75;;;5.90;;
34019;SDS011;20895;51.034;3.742;2023-09-07T07:49:23;9.32;;;5.93;;
34019;SDS011;20895;51.034;3.742;2023-09-07T07:51:48;7.80;;;6.10;;
34019;SDS011;20895;51.034;3.742;2023-09-07T07:54:14;8.45;;;6.15;;
34019;SDS011;20895;51.034;3.742;2023-09-07T07:56:41;7.97;;;5.47;;
34019;SDS011;20895;51.034;3.742;2023-09-07T07:59:06;11.77;;;5.55;;
34019;SDS011;20895;51.034;3.742;2023-09-07T08:01:31;7.63;;;5.97;;
34019;SDS011;20895;51.034;3.742;2023-09-07T08:03:57;7.68;;;5.55;;
34019;SDS011;20895;51.034;3.742;2023-09-07T08:06:22;9.00;;;5.30;;
34019;SDS011;20895;51.034;3.742;2023-09-07T08:08:48;9.10;;;5.43;;
34019;SDS011;20895;51.034;3.742;2023-09-07T08:11:16;6.00;;;5.10;;
34019;SDS011;20895;51.034;3.742;2023-09-07T08:13:46;6.00;;;5.30;;
34019;SDS011;20895;51.034;3.742;2023-09-07T08:16:11;7.45;;;5.00;;
34019;SDS011;20895;51.034;3.742;2023-09-07T08:18:37;9.90;;;5.63;;
34019;SDS011;20895;51.034;3.742;2023-09-07T08:21:03;7.20;;;5.28;;
34019;SDS011;20895;51.034;3.742;2023-09-07T08:23:28;6.60;;;4.82;;
34019;SDS011;20895;51.034;3.742;2023-09-07T08:25:53;8.87;;;5.10;;
34019;SDS011;20895;51.034;3.742;2023-09-07T08:28:19;8.05;;;4.95;;
34019;SDS011;20895;51.034;3.742;2023-09-07T08:30:48;5.32;;;4.75;;
34019;SDS011;20895;51.034;3.742;2023-09-07T08:33:13;6.68;;;4.70;;
34019;SDS011;20895;51.034;3.742;2023-09-07T08:35:38;7.22;;;4.63;;
34019;SDS011;20895;51.034;3.742;2023-09-07T08:38:09;5.90;;;4.25;;
34019;SDS011;20895;51.034;3.742;2023-09-07T08:40:35;5.28;;;4.10;;
34019;SDS011;20895;51.034;3.742;2023-09-07T08:43:04;5.97;;;4.30;;
34019;SDS011;20895;51.034;3.742;2023-09-07T08:45:31;9.32;;;4.25;;
34019;SDS011;20895;51.034;3.742;2023-09-07T08:48:01;5.32;;;3.88;;
34019;SDS011;20895;51.034;3.742;2023-09-07T08:50:27;6.97;;;4.15;;
34019;SDS011;20895;51.034;3.742;2023-09-07T08:52:53;6.57;;;4.22;;
34019;SDS011;20895;51.034;3.742;2023-09-07T08:55:19;5.32;;;3.90;;
34019;SDS011;20895;51.034;3.742;2023-09-07T08:57:44;4.85;;;3.97;;
34019;SDS011;20895;51.034;3.742;2023-09-07T09:00:10;5.95;;;4.07;;
34019;SDS011;20895;51.034;3.742;2023-09-07T09:02:41;5.85;;;4.00;;
34019;SDS011;20895;51.034;3.742;2023-09-07T09:05:08;5.55;;;4.20;;
34019;SDS011;20895;51.034;3.742;2023-09-07T09:07:33;7.70;;;4.00;;
34019;SDS011;20895;51.034;3.742;2023-09-07T09:10:04;5.88;;;4.60;;
34019;SDS011;20895;51.034;3.742;2023-09-07T09:12:30;5.75;;;4.43;;
34019;SDS011;20895;51.034;3.742;2023-09-07T09:14:55;5.70;;;4.20;;
34019;SDS011;20895;51.034;3.742;2023-09-07T09:17:20;9.77;;;4.60;;
34019;SDS011;20895;51.034;3.742;2023-09-07T09:19:46;5.97;;;3.95;;
34019;SDS011;20895;51.034;3.742;2023-09-07T09:22:11;7.43;;;4.63;;
34019;SDS011;20895;51.034;3.742;2023-09-07T09:24:36;5.15;;;3.67;;
34019;SDS011;20895;51.034;3.742;2023-09-07T09:27:03;7.75;;;3.63;;
34019;SDS011;20895;51.034;3.742;2023-09-07T09:29:29;6.32;;;3.92;;
34019;SDS011;20895;51.034;3.742;2023-09-07T09:31:54;5.35;;;3.58;;
34019;SDS011;20895;51.034;3.742;2023-09-07T09:34:20;8.18;;;3.75;;
34019;SDS011;20895;51.034;3.742;2023-09-07T09:36:45;10.52;;;3.30;;
34019;SDS011;20895;51.034;3.742;2023-09-07T09:39:20;6.47;;;3.70;;
34019;SDS011;20895;51.034;3.742;2023-09-07T09:41:46;7.15;;;3.40;;
34019;SDS011;20895;51.034;3.742;2023-09-07T09:44:11;4.50;;;3.55;;
34019;SDS011;20895;51.034;3.742;2023-09-07T09:46:37;7.63;;;3.53;;
34019;SDS011;20895;51.034;3.742;2023-09-07T09:49:04;10.80;;;3.65;;
34019;SDS011;20895;51.034;3.742;2023-09-07T09:51:30;6.47;;;3.72;;
34019;SDS011;20895;51.034;3.742;2023-09-07T09:53:57;15.32;;;4.88;;
34019;SDS011;20895;51.034;3.742;2023-09-07T09:56:22;5.30;;;4.00;;
34019;SDS011;20895;51.034;3.742;2023-09-07T09:58:47;6.55;;;3.65;;
34019;SDS011;20895;51.034;3.742;2023-09-07T10:01:13;7.03;;;3.78;;
34019;SDS011;20895;51.034;3.742;2023-09-07T10:03:45;6.68;;;3.78;;
34019;SDS011;20895;51.034;3.742;2023-09-07T10:06:32;6.68;;;3.42;;
34019;SDS011;20895;51.034;3.742;2023-09-07T10:09:01;9.50;;;4.93;;
34019;SDS011;20895;51.034;3.742;2023-09-07T10:11:36;5.40;;;3.08;;
34019;SDS011;20895;51.034;3.742;2023-09-07T10:14:05;8.77;;;3.35;;
34019;SDS011;20895;51.034;3.742;2023-09-07T10:16:46;5.72;;;3.70;;
34019;SDS011;20895;51.034;3.742;2023-09-07T10:19:16;5.95;;;3.55;;
34019;SDS011;20895;51.034;3.742;2023-09-07T10:21:41;8.60;;;4.18;;
34019;SDS011;20895;51.034;3.742;2023-09-07T10:24:07;6.28;;;3.65;;
34019;SDS011;20895;51.034;3.742;2023-09-07T10:26:33;4.75;;;2.83;;
34019;SDS011;20895;51.034;3.742;2023-09-07T10:28:58;5.38;;;3.28;;
34019;SDS011;20895;51.034;3.742;2023-09-07T10:31:25;5.00;;;3.13;;
34019;SDS011;20895;51.034;3.742;2023-09-07T10:33:50;5.43;;;3.38;;
34019;SDS011;20895;51.034;3.742;2023-09-07T10:36:25;5.60;;;3.40;;
34019;SDS011;20895;51.034;3.742;2023-09-07T10:38:51;5.38;;;3.20;;
34019;SDS011;20895;51.034;3.742;2023-09-07T10:41:20;8.20;;;3.22;;
34019;SDS011;20895;51.034;3.742;2023-09-07T10:43:49;6.28;;;3.10;;
34019;SDS011;20895;51.034;3.742;2023-09-07T10:46:17;5.93;;;3.20;;
34019;SDS011;20895;51.034;3.742;2023-09-07T10:48:43;4.35;;;3.35;;
34019;SDS011;20895;51.034;3.742;2023-09-07T10:51:08;5.80;;;3.13;;
34019;SDS011;20895;51.034;3.742;2023-09-07T10:53:33;4.80;;;3.40;;
34019;SDS011;20895;51.034;3.742;2023-09-07T10:55:59;7.45;;;3.00;;
34019;SDS011;20895;51.034;3.742;2023-09-07T10:58:33;10.07;;;3.95;;
34019;SDS011;20895;51.034;3.742;2023-09-07T11:00:59;6.93;;;3.30;;
34019;SDS011;20895;51.034;3.742;2023-09-07T11:03:25;7.63;;;3.45;;
34019;SDS011;20895;51.034;3.742;2023-09-07T11:05:54;8.25;;;3.60;;
34019;SDS011;20895;51.034;3.742;2023-09-07T11:08:19;8.13;;;3.85;;
34019;SDS011;20895;51.034;3.742;2023-09-07T11:10:45;5.85;;;3.13;;
34019;SDS011;20895;51.034;3.742;2023-09-07T11:13:10;5.07;;;3.47;;
34019;SDS011;20895;51.034;3.742;2023-09-07T11:15:35;7.23;;;3.60;;
34019;SDS011;20895;51.034;3.742;2023-09-07T11:18:04;5.70;;;4.05;;
34019;SDS011;20895;51.034;3.742;2023-09-07T11:20:30;6.28;;;3.10;;
34019;SDS011;20895;51.034;3.742;2023-09-07T11:22:56;7.13;;;3.47;;
34019;SDS011;20895;51.034;3.742;2023-09-07T11:25:21;5.90;;;3.17;;
34019;SDS011;20895;51.034;3.742;2023-09-07T11:27:47;5.45;;;3.15;;
34019;SDS011;20895;51.034;3.742;2023-09-07T11:30:12;6.53;;;3.13;;
34019;SDS011;20895;51.034;3.742;2023-09-07T11:32:37;7.60;;;3.63;;
34019;SDS011;20895;51.034;3.742;2023-09-07T11:35:03;6.70;;;3.95;;
34019;SDS011;20895;51.034;3.742;2023-09-07T11:37:32;6.80;;;3.20;;
34019;SDS011;20895;51.034;3.742;2023-09-07T11:39:57;7.85;;;3.70;;
34019;SDS011;20895;51.034;3.742;2023-09-07T11:42:26;8.30;;;3.58;;
34019;SDS011;20895;51.034;3.742;2023-09-07T11:44:51;8.25;;;3.92;;
34019;SDS011;20895;51.034;3.742;2023-09-07T11:47:16;10.50;;;3.45;;
34019;SDS011;20895;51.034;3.742;2023-09-07T11:49:42;5.80;;;3.57;;
34019;SDS011;20895;51.034;3.742;2023-09-07T11:52:07;5.10;;;3.90;;
34019;SDS011;20895;51.034;3.742;2023-09-07T11:54:32;7.30;;;3.90;;
34019;SDS011;20895;51.034;3.742;2023-09-07T11:56:57;8.98;;;3.75;;
34019;SDS011;20895;51.034;3.742;2023-09-07T11:59:23;5.57;;;3.38;;
34019;SDS011;20895;51.034;3.742;2023-09-07T12:01:48;5.57;;;3.57;;
34019;SDS011;20895;51.034;3.742;2023-09-07T12:04:13;4.53;;;3.60;;
34019;SDS011;20895;51.034;3.742;2023-09-07T12:06:39;9.55;;;3.70;;
34019;SDS011;20895;51.034;3.742;2023-09-07T12:09:05;6.65;;;3.10;;
34019;SDS011;20895;51.034;3.742;2023-09-07T12:11:31;6.97;;;3.72;;
34019;SDS011;20895;51.034;3.742;2023-09-07T12:13:57;6.22;;;3.15;;
34019;SDS011;20895;51.034;3.742;2023-09-07T12:16:22;5.00;;;3.20;;
34019;SDS011;20895;51.034;3.742;2023-09-07T12:18:47;4.85;;;3.58;;
34019;SDS011;20895;51.034;3.742;2023-09-07T12:21:13;3.75;;;3.33;;
34019;SDS011;20895;51.034;3.742;2023-09-07T12:23:38;4.35;;;2.95;;
34019;SDS011;20895;51.034;3.742;2023-09-07T12:26:03;6.22;;;3.00;;
34019;SDS011;20895;51.034;3.742;2023-09-07T12:28:33;5.85;;;3.10;;
34019;SDS011;20895;51.034;3.742;2023-09-07T12:30:58;4.93;;;2.90;;
34019;SDS011;20895;51.034;3.742;2023-09-07T12:33:24;4.77;;;3.10;;
34019;SDS011;20895;51.034;3.742;2023-09-07T12:35:49;7.65;;;3.75;;
34019;SDS011;20895;51.034;3.742;2023-09-07T12:38:15;4.88;;;2.38;;
34019;SDS011;20895;51.034;3.742;2023-09-07T12:40:43;6.45;;;2.58;;
34019;SDS011;20895;51.034;3.742;2023-09-07T12:43:09;4.90;;;3.10;;
34019;SDS011;20895;51.034;3.742;2023-09-07T12:45:34;5.00;;;2.58;;
34019;SDS011;20895;51.034;3.742;2023-09-07T12:47:59;4.55;;;2.20;;
34019;SDS011;20895;51.034;3.742;2023-09-07T12:50:26;3.33;;;2.58;;
34019;SDS011;20895;51.034;3.742;2023-09-07T12:52:51;7.95;;;2.90;;
34019;SDS011;20895;51.034;3.742;2023-09-07T12:55:16;4.57;;;2.20;;
34019;SDS011;20895;51.034;3.742;2023-09-07T12:57:43;4.70;;;2.67;;
34019;SDS011;20895;51.034;3.742;2023-09-07T13:00:09;5.25;;;2.30;;
34019;SDS011;20895;51.034;3.742;2023-09-07T13:02:35;5.65;;;2.47;;
34019;SDS011;20895;51.034;3.742;2023-09-07T13:05:01;5.28;;;2.38;;
34019;SDS011;20895;51.034;3.742;2023-09-07T13:07:29;5.28;;;2.42;;
34019;SDS011;20895;51.034;3.742;2023-09-07T13:09:54;5.30;;;2.50;;
34019;SDS011;20895;51.034;3.742;2023-09-07T13:12:20;6.50;;;2.20;;
34019;SDS011;20895;51.034;3.742;2023-09-07T13:14:45;2.80;;;1.93;;
34019;SDS011;20895;51.034;3.742;2023-09-07T13:17:12;3.43;;;2.50;;
34019;SDS011;20895;51.034;3.742;2023-09-07T13:19:38;4.75;;;2.78;;
34019;SDS011;20895;51.034;3.742;2023-09-07T13:22:03;4.07;;;2.30;;
34019;SDS011;20895;51.034;3.742;2023-09-07T13:24:28;8.68;;;2.58;;
34019;SDS011;20895;51.034;3.742;2023-09-07T13:26:54;4.25;;;2.30;;
34019;SDS011;20895;51.034;3.742;2023-09-07T13:29:20;4.20;;;2.30;;
34019;SDS011;20895;51.034;3.742;2023-09-07T13:31:46;2.73;;;2.20;;
34019;SDS011;20895;51.034;3.742;2023-09-07T13:34:11;2.72;;;2.30;;
34019;SDS011;20895;51.034;3.742;2023-09-07T13:36:36;3.47;;;2.23;;
34019;SDS011;20895;51.034;3.742;2023-09-07T13:39:01;3.43;;;3.00;;
34019;SDS011;20895;51.034;3.742;2023-09-07T13:41:27;5.82;;;2.53;;
34019;SDS011;20895;51.034;3.742;2023-09-07T13:43:52;5.00;;;2.83;;
34019;SDS011;20895;51.034;3.742;2023-09-07T13:46:18;5.70;;;2.28;;
34019;SDS011;20895;51.034;3.742;2023-09-07T13:48:44;3.37;;;2.47;;
34019;SDS011;20895;51.034;3.742;2023-09-07T13:51:09;6.20;;;2.50;;
34019;SDS011;20895;51.034;3.742;2023-09-07T13:53:34;5.23;;;2.13;;
34019;SDS011;20895;51.034;3.742;2023-09-07T13:55:59;4.68;;;2.40;;
34019;SDS011;20895;51.034;3.742;2023-09-07T13:58:25;4.50;;;3.58;;
34019;SDS011;20895;51.034;3.742;2023-09-07T14:00:50;3.00;;;2.53;;
34019;SDS011;20895;51.034;3.742;2023-09-07T14:03:16;5.72;;;2.67;;
34019;SDS011;20895;51.034;3.742;2023-09-07T14:05:41;3.90;;;2.58;;
34019;SDS011;20895;51.034;3.742;2023-09-07T14:08:06;8.15;;;2.90;;
34019;SDS011;20895;51.034;3.742;2023-09-07T14:10:32;7.10;;;2.65;;
34019;SDS011;20895;51.034;3.742;2023-09-07T14:12:57;7.17;;;2.93;;
34019;SDS011;20895;51.034;3.742;2023-09-07T14:15:22;5.07;;;2.58;;
34019;SDS011;20895;51.034;3.742;2023-09-07T14:17:48;7.10;;;2.78;;
34019;SDS011;20895;51.034;3.742;2023-09-07T14:20:13;5.75;;;2.45;;
34019;SDS011;20895;51.034;3.742;2023-09-07T14:22:39;4.32;;;2.58;;
34019;SDS011;20895;51.034;3.742;2023-09-07T14:25:04;4.38;;;2.40;;
34019;SDS011;20895;51.034;3.742;2023-09-07T14:27:29;3.70;;;2.25;;
34019;SDS011;20895;51.034;3.742;2023-09-07T14:29:54;3.67;;;2.67;;
34019;SDS011;20895;51.034;3.742;2023-09-07T14:32:20;2.57;;;2.10;;
34019;SDS011;20895;51.034;3.742;2023-09-07T14:34:45;4.27;;;2.53;;
34019;SDS011;20895;51.034;3.742;2023-09-07T14:37:10;7.20;;;2.40;;